Arklow Raider — EIXS — position and weather

sailwx.info

Track history (hours):
 
Tides and Currents Weather Stations Pressure Air Temp Water Temp Dewpoint Dewpoint Depression Visibility Wind Speed Wind Dir Waves Ship Positions

Arklow Raider

Last reported at 2016-Dec-07 11:22 UTC. Time now 2016-Dec-09 07:48 UTC.
Position N 48°46' W 005°55'.

Length 90 m; draft 5.9 m.

Type: Ship. MMSI: 250001268.

Date/timePositionNaut miles runAvg speedWind from/ knotsBaromVisibWave heightAir tempDewpointWater temp
2016-Dec-07 11:22N 48°46' W 005°55'8 9.6
2016-Dec-07 10:33N 48°53' W 005°49'9 9.0
2016-Dec-07 09:33N 48°58' W 005°39'9 9.0
2016-Dec-07 08:33N 49°03' W 005°27'10 9.1
2016-Dec-07 07:27N 49°08' W 005°14'3110.0
2016-Dec-07 04:24N 49°24' W 004°33'911.0
2016-Dec-07 03:33N 49°29' W 004°21'1211.1
2016-Dec-07 02:31N 49°35' W 004°06'1410.7
2016-Dec-07 01:10N 49°42' W 003°47'710.4
2016-Dec-07 00:31N 49°46' W 003°38'9 9.9
2016-Dec-06 23:33N 49°49' W 003°25'5911.1
2016-Dec-06 18:11N 50°11' W 001°58'913.4
2016-Dec-06 17:32N 50°13' W 001°45'1312.9
2016-Dec-06 16:33N 50°17' W 001°26'4110.3
2016-Dec-06 12:33N 50°28' W 000°24'9 9.4
2016-Dec-06 11:33N 50°30' W 000°10'1110.0
2016-Dec-06 10:30N 50°33' E 000°05'4411.1
2016-Dec-06 06:31N 50°54' E 001°07'1010.2
2016-Dec-06 05:33N 51°00' E 001°20'9 9.2
2016-Dec-06 04:33N 51°06' E 001°31'9 9.2
2016-Dec-06 03:33N 51°12' E 001°42'1010.0
2016-Dec-06 02:33N 51°20' E 001°53'9 8.9
2016-Dec-06 01:33N 51°23' E 002°06'1110.7
2016-Dec-06 00:33N 51°21' E 002°23'1211.9
2016-Dec-05 23:33N 51°22' E 002°42'1211.6
2016-Dec-05 22:33N 51°24' E 003°00'1212.4
2016-Dec-05 21:33N 51°24' E 003°20'1211.8
2016-Dec-05 20:33N 51°25' E 003°39'8 8.0
2016-Dec-05 19:33N 51°20' E 003°49'1 1.4
2016-Dec-05 18:34N 51°19' E 003°50'2 2.2
2016-Dec-05 17:33N 51°17' E 003°51'0 0.0
2016-Dec-05 16:30N 51°17' E 003°51'0 0.0
2016-Dec-05 15:33N 51°17' E 003°51'0 0.0
2016-Dec-05 14:27N 51°17' E 003°51'0 0.0
2016-Dec-05 13:33N 51°17' E 003°51'0 0.0
2016-Dec-05 12:30N 51°17' E 003°51'0 0.0
2016-Dec-05 11:30N 51°17' E 003°51'0 0.0
2016-Dec-05 10:33N 51°17' E 003°51'0 0.0
2016-Dec-05 09:33N 51°17' E 003°51'0 0.0
2016-Dec-05 08:33N 51°17' E 003°51'0 0.0
2016-Dec-05 07:24N 51°17' E 003°51'0 0.0
2016-Dec-05 06:33N 51°17' E 003°51'0 0.0
2016-Dec-05 05:33N 51°17' E 003°51'0 0.0
2016-Dec-05 04:30N 51°17' E 003°51'0 0.0
2016-Dec-05 03:33N 51°17' E 003°51'0 0.0
2016-Dec-05 02:27N 51°17' E 003°51'0 0.0
2016-Dec-05 01:33N 51°17' E 003°51'0 0.0
2016-Dec-05 00:33N 51°17' E 003°51'0 0.0
2016-Dec-04 23:33N 51°17' E 003°51'0 0.0
2016-Dec-04 22:15N 51°17' E 003°51'0 0.0
2016-Dec-04 21:33N 51°17' E 003°51'0 0.0
2016-Dec-04 20:21N 51°17' E 003°51'0 0.0
2016-Dec-04 19:33N 51°17' E 003°51'0 0.0
2016-Dec-04 18:33N 51°17' E 003°51'0 0.0
2016-Dec-04 17:33N 51°17' E 003°51'0 0.0
2016-Dec-04 16:33N 51°17' E 003°51'0 0.0
2016-Dec-04 15:33N 51°17' E 003°51'0 0.0
2016-Dec-04 14:30N 51°17' E 003°51'0 0.0
2016-Dec-04 13:33N 51°17' E 003°51'0 0.0
2016-Dec-04 12:33N 51°17' E 003°51'0 0.0
2016-Dec-04 11:33N 51°17' E 003°51'0 0.0
2016-Dec-04 10:33N 51°17' E 003°51'0 0.0
2016-Dec-04 09:30N 51°17' E 003°51'0 0.0
2016-Dec-04 08:33N 51°17' E 003°51'0 0.0
2016-Dec-04 07:33N 51°17' E 003°51'0 0.0
2016-Dec-04 06:30N 51°17' E 003°51'0 0.0
2016-Dec-04 05:33N 51°17' E 003°51'4 3.7
2016-Dec-04 04:33N 51°20' E 003°49'5 5.0
2016-Dec-04 03:33N 51°23' E 003°43'1010.3
2016-Dec-04 02:33N 51°25' E 003°26'1211.5
2016-Dec-04 01:33N 51°24' E 003°08'1110.9
2016-Dec-04 00:33N 51°21' E 002°51'8 8.2
2016-Dec-03 23:33N 51°21' E 002°38'2 1.7
2016-Dec-03 22:31N 51°20' E 002°36'0 0.0
2016-Dec-03 21:31N 51°20' E 002°36'0 0.0
2016-Dec-03 20:31N 51°20' E 002°36'0 0.0
2016-Dec-03 19:31N 51°20' E 002°36'0 0.0
2016-Dec-03 18:31N 51°20' E 002°36'0 0.1
2016-Dec-03 17:31N 51°20' E 002°36'6 5.8
2016-Dec-03 16:33N 51°21' E 002°27'1111.0
2016-Dec-03 15:33N 51°19' E 002°09'1110.5
2016-Dec-03 14:33N 51°25' E 001°55'1110.5
2016-Dec-03 13:33N 51°29' E 001°39'13 9.3
2016-Dec-03 12:12N 51°29' E 001°19'6 9.0
2016-Dec-03 11:33N 51°29' E 001°10'9 9.4
2016-Dec-03 10:33N 51°29' E 000°55'10 9.8
2016-Dec-03 09:33N 51°30' E 000°39'1110.6
2016-Dec-03 08:34N 51°27' E 000°23'2 1.7
2016-Dec-03 07:33N 51°27' E 000°20'0 0.0
2016-Dec-03 06:33N 51°27' E 000°20'0 0.0
2016-Dec-03 05:33N 51°27' E 000°20'0 0.0
2016-Dec-03 04:33N 51°27' E 000°20'0 0.0
2016-Dec-03 03:33N 51°27' E 000°20'0 0.0
2016-Dec-03 02:33N 51°27' E 000°20'0 0.0
2016-Dec-03 01:34N 51°27' E 000°20'0 0.0
2016-Dec-03 00:33N 51°27' E 000°20'0 0.0
2016-Dec-02 23:34N 51°27' E 000°20'0 0.0
2016-Dec-02 22:34N 51°27' E 000°20'0 0.0
2016-Dec-02 21:34N 51°27' E 000°20'0 0.0
2016-Dec-02 20:33N 51°27' E 000°20'0 0.0
2016-Dec-02 19:34N 51°27' E 000°20'0 0.0
2016-Dec-02 18:34N 51°27' E 000°20'0 0.0
2016-Dec-02 17:33N 51°27' E 000°20'0 0.0
2016-Dec-02 16:33N 51°27' E 000°20'0 0.0
2016-Dec-02 15:33N 51°27' E 000°20'0 0.0
2016-Dec-02 14:33N 51°27' E 000°20'0 0.0
2016-Dec-02 13:33N 51°27' E 000°20'0 0.0
2016-Dec-02 12:34N 51°27' E 000°20'0 0.0
2016-Dec-02 11:34N 51°27' E 000°20'0 0.0
2016-Dec-02 10:33N 51°27' E 000°20'0 0.0
2016-Dec-02 09:33N 51°27' E 000°20'0 0.0
2016-Dec-02 08:33N 51°27' E 000°20'0 0.0
2016-Dec-02 07:34N 51°27' E 000°20'0 0.0
2016-Dec-02 06:33N 51°27' E 000°20'0 0.0
2016-Dec-02 05:34N 51°27' E 000°20'0 0.0
2016-Dec-02 04:33N 51°27' E 000°20'0 0.0
2016-Dec-02 03:34N 51°27' E 000°20'0 0.0
2016-Dec-02 02:33N 51°27' E 000°20'0 0.0
2016-Dec-02 01:33N 51°27' E 000°20'0 0.0
2016-Dec-02 00:33N 51°27' E 000°20'0 0.0
2016-Dec-01 23:34N 51°27' E 000°20'0 0.0
2016-Dec-01 22:33N 51°27' E 000°20'0 0.0
2016-Dec-01 21:34N 51°27' E 000°20'0 0.0
2016-Dec-01 20:33N 51°27' E 000°20'0 0.0
2016-Dec-01 19:33N 51°27' E 000°20'0 0.0
2016-Dec-01 18:33N 51°27' E 000°20'0 0.0
2016-Dec-01 17:34N 51°27' E 000°20'0 0.0
2016-Dec-01 16:34N 51°27' E 000°20'0 0.0
2016-Dec-01 15:33N 51°27' E 000°20'0 0.0
2016-Dec-01 14:33N 51°27' E 000°20'0 0.0
2016-Dec-01 13:34N 51°27' E 000°20'0 0.0
2016-Dec-01 12:33N 51°27' E 000°20'0 0.0
2016-Dec-01 11:33N 51°27' E 000°20'0 0.0
2016-Dec-01 10:34N 51°27' E 000°20'0 0.0
2016-Dec-01 09:34N 51°27' E 000°20'0 0.0
2016-Dec-01 08:33N 51°27' E 000°20'0 0.0
2016-Dec-01 07:33N 51°27' E 000°20'0 0.0
2016-Dec-01 06:33N 51°27' E 000°20'0 0.0
2016-Dec-01 05:33N 51°27' E 000°20'0 0.0
2016-Dec-01 04:33N 51°27' E 000°20'0 0.0
2016-Dec-01 03:34N 51°27' E 000°20'0 0.0
2016-Dec-01 02:33N 51°27' E 000°20'0 0.0
2016-Dec-01 01:34N 51°27' E 000°20'0 0.0
2016-Dec-01 00:33N 51°27' E 000°20'0 0.0
2016-Nov-30 23:34N 51°27' E 000°20'1 0.9
2016-Nov-30 22:33N 51°27' E 000°22'1110.7
2016-Nov-30 21:33N 51°30' E 000°38'1212.1
2016-Nov-30 20:33N 51°29' E 000°57'1111.2
2016-Nov-30 19:33N 51°29' E 001°15'10 9.7
2016-Nov-30 18:34N 51°26' E 001°30'6 5.7
2016-Nov-30 17:33N 51°21' E 001°35'5 4.9
2016-Nov-30 16:33N 51°16' E 001°37'5 5.3
2016-Nov-30 15:33N 51°11' E 001°37'1010.3
2016-Nov-30 14:33N 51°01' E 001°33'1312.5
2016-Nov-30 13:32N 50°50' E 001°22'1211.9
2016-Nov-30 12:33N 50°40' E 001°13'2411.7
2016-Nov-30 10:32N 50°29' E 000°40'1512.6
2016-Nov-30 09:22N 50°25' E 000°18'1113.1
2016-Nov-30 08:32N 50°22' E 000°01'3912.0
2016-Nov-30 05:16N 50°23' W 001°00'10 9.9
2016-Nov-30 04:13N 50°23' W 001°16'41 8.3
2016-Nov-29 23:17N 50°13' W 002°19'2010.7
2016-Nov-29 21:28N 50°09' W 002°48'1011.0
2016-Nov-29 20:33N 50°06' W 003°03'1111.1
2016-Nov-29 19:33N 50°04' W 003°20'1111.1
2016-Nov-29 18:33N 50°02' W 003°37'1211.0
2016-Nov-29 17:28N 49°60' W 003°56'1310.6
2016-Nov-29 16:16N 49°58' W 004°15'810.1
2016-Nov-29 15:29N 49°57' W 004°27'27 9.1
2016-Nov-29 12:32N 49°53' W 005°09'9 7.9
2016-Nov-29 11:25N 49°54' W 005°22'7 8.1
2016-Nov-29 10:33N 49°54' W 005°33'9 8.4
2016-Nov-29 09:31N 49°54' W 005°47'23010.0
2016-Nov-28 10:32N 53°44' W 006°12'  
Track history (hours):
 
Tides and Currents Weather Stations Pressure Air Temp Water Temp Dewpoint Dewpoint Depression Visibility Wind Speed Wind Dir Waves Ship Positions

Arklow Raider

Last reported at 2016-Dec-07 11:22 UTC. Time now 2016-Dec-09 07:48 UTC.
Position N 48°46' W 005°55'.

Length 90 m; draft 5.9 m.

Type: Ship. MMSI: 250001268.

Date/timePositionNaut miles runAvg speedWind from/ knotsBaromVisibWave heightAir tempDewpointWater temp
2016-Dec-07 11:22N 48°46' W 005°55'8 9.6
2016-Dec-07 10:33N 48°53' W 005°49'9 9.0
2016-Dec-07 09:33N 48°58' W 005°39'9 9.0
2016-Dec-07 08:33N 49°03' W 005°27'10 9.1
2016-Dec-07 07:27N 49°08' W 005°14'3110.0
2016-Dec-07 04:24N 49°24' W 004°33'911.0
2016-Dec-07 03:33N 49°29' W 004°21'1211.1
2016-Dec-07 02:31N 49°35' W 004°06'1410.7
2016-Dec-07 01:10N 49°42' W 003°47'710.4
2016-Dec-07 00:31N 49°46' W 003°38'9 9.9
2016-Dec-06 23:33N 49°49' W 003°25'5911.1
2016-Dec-06 18:11N 50°11' W 001°58'913.4
2016-Dec-06 17:32N 50°13' W 001°45'1312.9
2016-Dec-06 16:33N 50°17' W 001°26'4110.3
2016-Dec-06 12:33N 50°28' W 000°24'9 9.4
2016-Dec-06 11:33N 50°30' W 000°10'1110.0
2016-Dec-06 10:30N 50°33' E 000°05'4411.1
2016-Dec-06 06:31N 50°54' E 001°07'1010.2
2016-Dec-06 05:33N 51°00' E 001°20'9 9.2
2016-Dec-06 04:33N 51°06' E 001°31'9 9.2
2016-Dec-06 03:33N 51°12' E 001°42'1010.0
2016-Dec-06 02:33N 51°20' E 001°53'9 8.9
2016-Dec-06 01:33N 51°23' E 002°06'1110.7
2016-Dec-06 00:33N 51°21' E 002°23'1211.9
2016-Dec-05 23:33N 51°22' E 002°42'1211.6
2016-Dec-05 22:33N 51°24' E 003°00'1212.4
2016-Dec-05 21:33N 51°24' E 003°20'1211.8
2016-Dec-05 20:33N 51°25' E 003°39'8 8.0
2016-Dec-05 19:33N 51°20' E 003°49'1 1.4
2016-Dec-05 18:34N 51°19' E 003°50'2 2.2
2016-Dec-05 17:33N 51°17' E 003°51'0 0.0
2016-Dec-05 16:30N 51°17' E 003°51'0 0.0
2016-Dec-05 15:33N 51°17' E 003°51'0 0.0
2016-Dec-05 14:27N 51°17' E 003°51'0 0.0
2016-Dec-05 13:33N 51°17' E 003°51'0 0.0
2016-Dec-05 12:30N 51°17' E 003°51'0 0.0
2016-Dec-05 11:30N 51°17' E 003°51'0 0.0
2016-Dec-05 10:33N 51°17' E 003°51'0 0.0
2016-Dec-05 09:33N 51°17' E 003°51'0 0.0
2016-Dec-05 08:33N 51°17' E 003°51'0 0.0
2016-Dec-05 07:24N 51°17' E 003°51'0 0.0
2016-Dec-05 06:33N 51°17' E 003°51'0 0.0
2016-Dec-05 05:33N 51°17' E 003°51'0 0.0
2016-Dec-05 04:30N 51°17' E 003°51'0 0.0
2016-Dec-05 03:33N 51°17' E 003°51'0 0.0
2016-Dec-05 02:27N 51°17' E 003°51'0 0.0
2016-Dec-05 01:33N 51°17' E 003°51'0 0.0
2016-Dec-05 00:33N 51°17' E 003°51'0 0.0
2016-Dec-04 23:33N 51°17' E 003°51'0 0.0
2016-Dec-04 22:15N 51°17' E 003°51'0 0.0
2016-Dec-04 21:33N 51°17' E 003°51'0 0.0
2016-Dec-04 20:21N 51°17' E 003°51'0 0.0
2016-Dec-04 19:33N 51°17' E 003°51'0 0.0
2016-Dec-04 18:33N 51°17' E 003°51'0 0.0
2016-Dec-04 17:33N 51°17' E 003°51'0 0.0
2016-Dec-04 16:33N 51°17' E 003°51'0 0.0
2016-Dec-04 15:33N 51°17' E 003°51'0 0.0
2016-Dec-04 14:30N 51°17' E 003°51'0 0.0
2016-Dec-04 13:33N 51°17' E 003°51'0 0.0
2016-Dec-04 12:33N 51°17' E 003°51'0 0.0
2016-Dec-04 11:33N 51°17' E 003°51'0 0.0
2016-Dec-04 10:33N 51°17' E 003°51'0 0.0
2016-Dec-04 09:30N 51°17' E 003°51'0 0.0
2016-Dec-04 08:33N 51°17' E 003°51'0 0.0
2016-Dec-04 07:33N 51°17' E 003°51'0 0.0
2016-Dec-04 06:30N 51°17' E 003°51'0 0.0
2016-Dec-04 05:33N 51°17' E 003°51'4 3.7
2016-Dec-04 04:33N 51°20' E 003°49'5 5.0
2016-Dec-04 03:33N 51°23' E 003°43'1010.3
2016-Dec-04 02:33N 51°25' E 003°26'1211.5
2016-Dec-04 01:33N 51°24' E 003°08'1110.9
2016-Dec-04 00:33N 51°21' E 002°51'8 8.2
2016-Dec-03 23:33N 51°21' E 002°38'2 1.7
2016-Dec-03 22:31N 51°20' E 002°36'0 0.0
2016-Dec-03 21:31N 51°20' E 002°36'0 0.0
2016-Dec-03 20:31N 51°20' E 002°36'0 0.0
2016-Dec-03 19:31N 51°20' E 002°36'0 0.0
2016-Dec-03 18:31N 51°20' E 002°36'0 0.1
2016-Dec-03 17:31N 51°20' E 002°36'6 5.8
2016-Dec-03 16:33N 51°21' E 002°27'1111.0
2016-Dec-03 15:33N 51°19' E 002°09'1110.5
2016-Dec-03 14:33N 51°25' E 001°55'1110.5
2016-Dec-03 13:33N 51°29' E 001°39'13 9.3
2016-Dec-03 12:12N 51°29' E 001°19'6 9.0
2016-Dec-03 11:33N 51°29' E 001°10'9 9.4
2016-Dec-03 10:33N 51°29' E 000°55'10 9.8
2016-Dec-03 09:33N 51°30' E 000°39'1110.6
2016-Dec-03 08:34N 51°27' E 000°23'2 1.7
2016-Dec-03 07:33N 51°27' E 000°20'0 0.0
2016-Dec-03 06:33N 51°27' E 000°20'0 0.0
2016-Dec-03 05:33N 51°27' E 000°20'0 0.0
2016-Dec-03 04:33N 51°27' E 000°20'0 0.0
2016-Dec-03 03:33N 51°27' E 000°20'0 0.0
2016-Dec-03 02:33N 51°27' E 000°20'0 0.0
2016-Dec-03 01:34N 51°27' E 000°20'0 0.0
2016-Dec-03 00:33N 51°27' E 000°20'0 0.0
2016-Dec-02 23:34N 51°27' E 000°20'0 0.0
2016-Dec-02 22:34N 51°27' E 000°20'0 0.0
2016-Dec-02 21:34N 51°27' E 000°20'0 0.0
2016-Dec-02 20:33N 51°27' E 000°20'0 0.0
2016-Dec-02 19:34N 51°27' E 000°20'0 0.0
2016-Dec-02 18:34N 51°27' E 000°20'0 0.0
2016-Dec-02 17:33N 51°27' E 000°20'0 0.0
2016-Dec-02 16:33N 51°27' E 000°20'0 0.0
2016-Dec-02 15:33N 51°27' E 000°20'0 0.0
2016-Dec-02 14:33N 51°27' E 000°20'0 0.0
2016-Dec-02 13:33N 51°27' E 000°20'0 0.0
2016-Dec-02 12:34N 51°27' E 000°20'0 0.0
2016-Dec-02 11:34N 51°27' E 000°20'0 0.0
2016-Dec-02 10:33N 51°27' E 000°20'0 0.0
2016-Dec-02 09:33N 51°27' E 000°20'0 0.0
2016-Dec-02 08:33N 51°27' E 000°20'0 0.0
2016-Dec-02 07:34N 51°27' E 000°20'0 0.0
2016-Dec-02 06:33N 51°27' E 000°20'0 0.0
2016-Dec-02 05:34N 51°27' E 000°20'0 0.0
2016-Dec-02 04:33N 51°27' E 000°20'0 0.0
2016-Dec-02 03:34N 51°27' E 000°20'0 0.0
2016-Dec-02 02:33N 51°27' E 000°20'0 0.0
2016-Dec-02 01:33N 51°27' E 000°20'0 0.0
2016-Dec-02 00:33N 51°27' E 000°20'0 0.0
2016-Dec-01 23:34N 51°27' E 000°20'0 0.0
2016-Dec-01 22:33N 51°27' E 000°20'0 0.0
2016-Dec-01 21:34N 51°27' E 000°20'0 0.0
2016-Dec-01 20:33N 51°27' E 000°20'0 0.0
2016-Dec-01 19:33N 51°27' E 000°20'0 0.0
2016-Dec-01 18:33N 51°27' E 000°20'0 0.0
2016-Dec-01 17:34N 51°27' E 000°20'0 0.0
2016-Dec-01 16:34N 51°27' E 000°20'0 0.0
2016-Dec-01 15:33N 51°27' E 000°20'0 0.0
2016-Dec-01 14:33N 51°27' E 000°20'0 0.0
2016-Dec-01 13:34N 51°27' E 000°20'0 0.0
2016-Dec-01 12:33N 51°27' E 000°20'0 0.0
2016-Dec-01 11:33N 51°27' E 000°20'0 0.0
2016-Dec-01 10:34N 51°27' E 000°20'0 0.0
2016-Dec-01 09:34N 51°27' E 000°20'0 0.0
2016-Dec-01 08:33N 51°27' E 000°20'0 0.0
2016-Dec-01 07:33N 51°27' E 000°20'0 0.0
2016-Dec-01 06:33N 51°27' E 000°20'0 0.0
2016-Dec-01 05:33N 51°27' E 000°20'0 0.0
2016-Dec-01 04:33N 51°27' E 000°20'0 0.0
2016-Dec-01 03:34N 51°27' E 000°20'0 0.0
2016-Dec-01 02:33N 51°27' E 000°20'0 0.0
2016-Dec-01 01:34N 51°27' E 000°20'0 0.0
2016-Dec-01 00:33N 51°27' E 000°20'0 0.0
2016-Nov-30 23:34N 51°27' E 000°20'1 0.9
2016-Nov-30 22:33N 51°27' E 000°22'1110.7
2016-Nov-30 21:33N 51°30' E 000°38'1212.1
2016-Nov-30 20:33N 51°29' E 000°57'1111.2
2016-Nov-30 19:33N 51°29' E 001°15'10 9.7
2016-Nov-30 18:34N 51°26' E 001°30'6 5.7
2016-Nov-30 17:33N 51°21' E 001°35'5 4.9
2016-Nov-30 16:33N 51°16' E 001°37'5 5.3
2016-Nov-30 15:33N 51°11' E 001°37'1010.3
2016-Nov-30 14:33N 51°01' E 001°33'1312.5
2016-Nov-30 13:32N 50°50' E 001°22'1211.9
2016-Nov-30 12:33N 50°40' E 001°13'2411.7
2016-Nov-30 10:32N 50°29' E 000°40'1512.6
2016-Nov-30 09:22N 50°25' E 000°18'1113.1
2016-Nov-30 08:32N 50°22' E 000°01'3912.0
2016-Nov-30 05:16N 50°23' W 001°00'10 9.9
2016-Nov-30 04:13N 50°23' W 001°16'41 8.3
2016-Nov-29 23:17N 50°13' W 002°19'2010.7
2016-Nov-29 21:28N 50°09' W 002°48'1011.0
2016-Nov-29 20:33N 50°06' W 003°03'1111.1
2016-Nov-29 19:33N 50°04' W 003°20'1111.1
2016-Nov-29 18:33N 50°02' W 003°37'1211.0
2016-Nov-29 17:28N 49°60' W 003°56'1310.6
2016-Nov-29 16:16N 49°58' W 004°15'810.1
2016-Nov-29 15:29N 49°57' W 004°27'27 9.1
2016-Nov-29 12:32N 49°53' W 005°09'9 7.9
2016-Nov-29 11:25N 49°54' W 005°22'7 8.1
2016-Nov-29 10:33N 49°54' W 005°33'9 8.4
2016-Nov-29 09:31N 49°54' W 005°47'23010.0
2016-Nov-28 10:32N 53°44' W 006°12'  

Dump ship's entire track history